Preview of NWS' New Version of Forecast
This preview is not operational and should not be used for support decisions.

Terminal Aerodrome Forecast (TAF)

Issued by National Weather Service (NWS)

                            
851 
FTUS42 KKEY 250535
TAFEYW
TAF
KEYW 250535Z 2506/2606 VRB06KT P6SM VCSH SCT020 SCT060 BKN100
     FM251500 09011KT P6SM VCSH FEW020 SCT050 OVC070
     FM252000 10012G18KT P6SM SCT015 SCT030 OVC060 PROB30 2520/2602
      12016G26KT 3SM +TSRA BR BKN015CB OVC030=